sensor_id;sensor_type;location;lat;lon;timestamp;temperature;humidity
76099;DHT22;64828;49.956;8.636;2023-06-10T00:00:10;16.50;74.90
76099;DHT22;64828;49.956;8.636;2023-06-10T00:00:28;16.50;75.10
76099;DHT22;64828;49.956;8.636;2023-06-10T00:00:45;16.50;75.20
76099;DHT22;64828;49.956;8.636;2023-06-10T00:01:01;16.50;75.20
76099;DHT22;64828;49.956;8.636;2023-06-10T00:01:17;16.50;75.20
76099;DHT22;64828;49.956;8.636;2023-06-10T00:01:33;16.50;75.20
76099;DHT22;64828;49.956;8.636;2023-06-10T00:01:52;16.50;75.30
76099;DHT22;64828;49.956;8.636;2023-06-10T00:02:10;16.50;75.30
76099;DHT22;64828;49.956;8.636;2023-06-10T00:02:26;16.50;75.60
76099;DHT22;64828;49.956;8.636;2023-06-10T00:02:42;16.50;75.60
76099;DHT22;64828;49.956;8.636;2023-06-10T00:02:59;16.50;75.40
76099;DHT22;64828;49.956;8.636;2023-06-10T00:03:14;16.50;75.20
76099;DHT22;64828;49.956;8.636;2023-06-10T00:03:30;16.50;75.00
76099;DHT22;64828;49.956;8.636;2023-06-10T00:03:45;16.50;74.90
76099;DHT22;64828;49.956;8.636;2023-06-10T00:04:01;16.50;74.80
76099;DHT22;64828;49.956;8.636;2023-06-10T00:04:17;16.50;74.60
76099;DHT22;64828;49.956;8.636;2023-06-10T00:04:33;16.50;74.60
76099;DHT22;64828;49.956;8.636;2023-06-10T00:04:48;16.50;74.60
76099;DHT22;64828;49.956;8.636;2023-06-10T00:05:05;16.50;74.80
76099;DHT22;64828;49.956;8.636;2023-06-10T00:05:21;16.50;74.80
76099;DHT22;64828;49.956;8.636;2023-06-10T00:05:36;16.50;74.90
76099;DHT22;64828;49.956;8.636;2023-06-10T00:05:53;16.50;75.10
76099;DHT22;64828;49.956;8.636;2023-06-10T00:06:09;16.50;75.00
76099;DHT22;64828;49.956;8.636;2023-06-10T00:06:25;16.50;74.80
76099;DHT22;64828;49.956;8.636;2023-06-10T00:06:41;16.50;74.70
76099;DHT22;64828;49.956;8.636;2023-06-10T00:06:56;16.50;74.70
76099;DHT22;64828;49.956;8.636;2023-06-10T00:07:12;16.50;74.80
76099;DHT22;64828;49.956;8.636;2023-06-10T00:07:28;16.50;74.70
76099;DHT22;64828;49.956;8.636;2023-06-10T00:07:43;16.40;74.60
76099;DHT22;64828;49.956;8.636;2023-06-10T00:08:02;16.40;74.70
76099;DHT22;64828;49.956;8.636;2023-06-10T00:08:22;16.50;74.40
76099;DHT22;64828;49.956;8.636;2023-06-10T00:08:38;16.40;74.50
76099;DHT22;64828;49.956;8.636;2023-06-10T00:08:55;16.40;74.50
76099;DHT22;64828;49.956;8.636;2023-06-10T00:09:10;16.40;74.30
76099;DHT22;64828;49.956;8.636;2023-06-10T00:09:26;16.40;74.30
76099;DHT22;64828;49.956;8.636;2023-06-10T00:09:43;16.50;74.40
76099;DHT22;64828;49.956;8.636;2023-06-10T00:09:59;16.50;74.40
76099;DHT22;64828;49.956;8.636;2023-06-10T00:10:18;16.40;74.40
76099;DHT22;64828;49.956;8.636;2023-06-10T00:10:37;16.40;74.20
76099;DHT22;64828;49.956;8.636;2023-06-10T00:10:53;16.40;74.10
76099;DHT22;64828;49.956;8.636;2023-06-10T00:11:09;16.40;74.00
76099;DHT22;64828;49.956;8.636;2023-06-10T00:11:25;16.40;74.10
76099;DHT22;64828;49.956;8.636;2023-06-10T00:11:42;16.40;74.20
76099;DHT22;64828;49.956;8.636;2023-06-10T00:11:58;16.40;74.40
76099;DHT22;64828;49.956;8.636;2023-06-10T00:12:15;16.40;74.20
76099;DHT22;64828;49.956;8.636;2023-06-10T00:12:33;16.40;74.30
76099;DHT22;64828;49.956;8.636;2023-06-10T00:12:53;16.40;74.50
76099;DHT22;64828;49.956;8.636;2023-06-10T00:13:09;16.40;74.30
76099;DHT22;64828;49.956;8.636;2023-06-10T00:13:26;16.40;74.50
76099;DHT22;64828;49.956;8.636;2023-06-10T00:13:45;16.40;74.60
76099;DHT22;64828;49.956;8.636;2023-06-10T00:14:00;16.40;74.50
76099;DHT22;64828;49.956;8.636;2023-06-10T00:14:17;16.40;74.50
76099;DHT22;64828;49.956;8.636;2023-06-10T00:14:37;16.30;74.40
76099;DHT22;64828;49.956;8.636;2023-06-10T00:14:54;16.30;74.30
76099;DHT22;64828;49.956;8.636;2023-06-10T00:15:09;16.30;74.30
76099;DHT22;64828;49.956;8.636;2023-06-10T00:15:25;16.40;74.50
76099;DHT22;64828;49.956;8.636;2023-06-10T00:15:41;16.40;74.50
76099;DHT22;64828;49.956;8.636;2023-06-10T00:15:56;16.30;74.40
76099;DHT22;64828;49.956;8.636;2023-06-10T00:16:12;16.40;74.50
76099;DHT22;64828;49.956;8.636;2023-06-10T00:16:27;16.30;74.60
76099;DHT22;64828;49.956;8.636;2023-06-10T00:16:43;16.30;74.60
76099;DHT22;64828;49.956;8.636;2023-06-10T00:17:00;16.30;74.90
76099;DHT22;64828;49.956;8.636;2023-06-10T00:17:16;16.30;75.00
76099;DHT22;64828;49.956;8.636;2023-06-10T00:17:31;16.30;75.10
76099;DHT22;64828;49.956;8.636;2023-06-10T00:17:47;16.30;75.00
76099;DHT22;64828;49.956;8.636;2023-06-10T00:18:05;16.30;75.00
76099;DHT22;64828;49.956;8.636;2023-06-10T00:18:21;16.30;75.00
76099;DHT22;64828;49.956;8.636;2023-06-10T00:18:37;16.30;74.80
76099;DHT22;64828;49.956;8.636;2023-06-10T00:18:54;16.30;74.90
76099;DHT22;64828;49.956;8.636;2023-06-10T00:19:16;16.30;75.00
76099;DHT22;64828;49.956;8.636;2023-06-10T00:19:31;16.30;75.10
76099;DHT22;64828;49.956;8.636;2023-06-10T00:19:47;16.30;75.10
76099;DHT22;64828;49.956;8.636;2023-06-10T00:20:03;16.20;75.10
76099;DHT22;64828;49.956;8.636;2023-06-10T00:20:24;16.20;74.80
76099;DHT22;64828;49.956;8.636;2023-06-10T00:20:40;16.20;74.80
76099;DHT22;64828;49.956;8.636;2023-06-10T00:20:56;16.20;75.00
76099;DHT22;64828;49.956;8.636;2023-06-10T00:21:12;16.20;75.00
76099;DHT22;64828;49.956;8.636;2023-06-10T00:21:29;16.20;75.10
76099;DHT22;64828;49.956;8.636;2023-06-10T00:21:52;16.20;75.30
76099;DHT22;64828;49.956;8.636;2023-06-10T00:22:08;16.20;76.00
76099;DHT22;64828;49.956;8.636;2023-06-10T00:22:25;16.20;75.70
76099;DHT22;64828;49.956;8.636;2023-06-10T00:22:44;16.20;75.50
76099;DHT22;64828;49.956;8.636;2023-06-10T00:23:01;16.20;75.40
76099;DHT22;64828;49.956;8.636;2023-06-10T00:23:16;16.20;75.50
76099;DHT22;64828;49.956;8.636;2023-06-10T00:23:32;16.20;75.40
76099;DHT22;64828;49.956;8.636;2023-06-10T00:23:52;16.10;75.60
76099;DHT22;64828;49.956;8.636;2023-06-10T00:24:09;16.20;75.80
76099;DHT22;64828;49.956;8.636;2023-06-10T00:24:27;16.10;76.00
76099;DHT22;64828;49.956;8.636;2023-06-10T00:24:43;16.10;76.00
76099;DHT22;64828;49.956;8.636;2023-06-10T00:24:58;16.10;76.20
76099;DHT22;64828;49.956;8.636;2023-06-10T00:25:14;16.10;76.50
76099;DHT22;64828;49.956;8.636;2023-06-10T00:25:30;16.10;76.40
76099;DHT22;64828;49.956;8.636;2023-06-10T00:25:46;16.10;76.40
76099;DHT22;64828;49.956;8.636;2023-06-10T00:26:02;16.10;76.30
76099;DHT22;64828;49.956;8.636;2023-06-10T00:26:17;16.10;76.30
76099;DHT22;64828;49.956;8.636;2023-06-10T00:26:33;16.00;76.50
76099;DHT22;64828;49.956;8.636;2023-06-10T00:26:49;16.00;76.50
76099;DHT22;64828;49.956;8.636;2023-06-10T00:27:05;16.00;76.50
76099;DHT22;64828;49.956;8.636;2023-06-10T00:27:22;16.00;76.60
76099;DHT22;64828;49.956;8.636;2023-06-10T00:27:39;16.00;76.80
76099;DHT22;64828;49.956;8.636;2023-06-10T00:27:55;16.00;76.80
76099;DHT22;64828;49.956;8.636;2023-06-10T00:28:10;16.00;76.60
76099;DHT22;64828;49.956;8.636;2023-06-10T00:28:26;16.00;76.70
76099;DHT22;64828;49.956;8.636;2023-06-10T00:28:42;16.00;76.90
76099;DHT22;64828;49.956;8.636;2023-06-10T00:28:58;16.00;76.80
76099;DHT22;64828;49.956;8.636;2023-06-10T00:29:14;16.00;76.70
76099;DHT22;64828;49.956;8.636;2023-06-10T00:29:30;16.00;77.00
76099;DHT22;64828;49.956;8.636;2023-06-10T00:29:45;16.00;76.80
76099;DHT22;64828;49.956;8.636;2023-06-10T00:30:03;16.00;77.10
76099;DHT22;64828;49.956;8.636;2023-06-10T00:30:21;16.00;77.50
76099;DHT22;64828;49.956;8.636;2023-06-10T00:30:37;16.00;77.50
76099;DHT22;64828;49.956;8.636;2023-06-10T00:30:53;16.00;77.60
76099;DHT22;64828;49.956;8.636;2023-06-10T00:31:08;16.00;77.70
76099;DHT22;64828;49.956;8.636;2023-06-10T00:31:24;15.90;77.80
76099;DHT22;64828;49.956;8.636;2023-06-10T00:31:41;15.90;77.90
76099;DHT22;64828;49.956;8.636;2023-06-10T00:31:59;15.90;78.20
76099;DHT22;64828;49.956;8.636;2023-06-10T00:32:14;15.90;78.40
76099;DHT22;64828;49.956;8.636;2023-06-10T00:32:30;15.90;78.40
76099;DHT22;64828;49.956;8.636;2023-06-10T00:32:46;15.90;78.40
76099;DHT22;64828;49.956;8.636;2023-06-10T00:33:02;15.90;78.50
76099;DHT22;64828;49.956;8.636;2023-06-10T00:33:17;15.80;78.40
76099;DHT22;64828;49.956;8.636;2023-06-10T00:33:33;15.80;78.40
76099;DHT22;64828;49.956;8.636;2023-06-10T00:33:48;15.80;78.50
76099;DHT22;64828;49.956;8.636;2023-06-10T00:34:04;15.80;78.80
76099;DHT22;64828;49.956;8.636;2023-06-10T00:34:20;15.80;79.10
76099;DHT22;64828;49.956;8.636;2023-06-10T00:34:36;15.80;79.00
76099;DHT22;64828;49.956;8.636;2023-06-10T00:34:51;15.80;79.10
76099;DHT22;64828;49.956;8.636;2023-06-10T00:35:07;15.70;79.20
76099;DHT22;64828;49.956;8.636;2023-06-10T00:35:23;15.80;79.40
76099;DHT22;64828;49.956;8.636;2023-06-10T00:35:38;15.70;79.40
76099;DHT22;64828;49.956;8.636;2023-06-10T00:35:54;15.70;79.50
76099;DHT22;64828;49.956;8.636;2023-06-10T00:36:10;15.70;79.50
76099;DHT22;64828;49.956;8.636;2023-06-10T00:36:25;15.70;79.80
76099;DHT22;64828;49.956;8.636;2023-06-10T00:36:41;15.70;79.80
76099;DHT22;64828;49.956;8.636;2023-06-10T00:36:58;15.70;79.40
76099;DHT22;64828;49.956;8.636;2023-06-10T00:37:14;15.70;79.40
76099;DHT22;64828;49.956;8.636;2023-06-10T00:37:29;15.70;79.30
76099;DHT22;64828;49.956;8.636;2023-06-10T00:37:45;15.70;79.40
76099;DHT22;64828;49.956;8.636;2023-06-10T00:38:01;15.70;79.30
76099;DHT22;64828;49.956;8.636;2023-06-10T00:38:16;15.70;79.20
76099;DHT22;64828;49.956;8.636;2023-06-10T00:38:32;15.70;79.00
76099;DHT22;64828;49.956;8.636;2023-06-10T00:38:48;15.70;78.80
76099;DHT22;64828;49.956;8.636;2023-06-10T00:39:04;15.70;78.70
76099;DHT22;64828;49.956;8.636;2023-06-10T00:39:19;15.70;78.50
76099;DHT22;64828;49.956;8.636;2023-06-10T00:39:35;15.70;78.40
76099;DHT22;64828;49.956;8.636;2023-06-10T00:39:51;15.70;78.80
76099;DHT22;64828;49.956;8.636;2023-06-10T00:40:07;15.70;79.10
76099;DHT22;64828;49.956;8.636;2023-06-10T00:40:24;15.70;79.30
76099;DHT22;64828;49.956;8.636;2023-06-10T00:40:40;15.70;79.20
76099;DHT22;64828;49.956;8.636;2023-06-10T00:40:56;15.70;79.20
76099;DHT22;64828;49.956;8.636;2023-06-10T00:41:12;15.70;79.00
76099;DHT22;64828;49.956;8.636;2023-06-10T00:41:27;15.70;79.10
76099;DHT22;64828;49.956;8.636;2023-06-10T00:41:43;15.70;78.80
76099;DHT22;64828;49.956;8.636;2023-06-10T00:41:58;15.70;78.80
76099;DHT22;64828;49.956;8.636;2023-06-10T00:42:14;15.70;78.60
76099;DHT22;64828;49.956;8.636;2023-06-10T00:42:30;15.70;78.70
76099;DHT22;64828;49.956;8.636;2023-06-10T00:42:46;15.70;78.80
76099;DHT22;64828;49.956;8.636;2023-06-10T00:43:02;15.70;78.90
76099;DHT22;64828;49.956;8.636;2023-06-10T00:43:17;15.70;78.80
76099;DHT22;64828;49.956;8.636;2023-06-10T00:43:33;15.70;78.90
76099;DHT22;64828;49.956;8.636;2023-06-10T00:43:49;15.70;78.90
76099;DHT22;64828;49.956;8.636;2023-06-10T00:44:04;15.70;78.80
76099;DHT22;64828;49.956;8.636;2023-06-10T00:44:20;15.70;78.90
76099;DHT22;64828;49.956;8.636;2023-06-10T00:44:35;15.70;78.90
76099;DHT22;64828;49.956;8.636;2023-06-10T00:44:51;15.70;78.80
76099;DHT22;64828;49.956;8.636;2023-06-10T00:45:07;15.70;78.80
76099;DHT22;64828;49.956;8.636;2023-06-10T00:45:23;15.70;79.00
76099;DHT22;64828;49.956;8.636;2023-06-10T00:45:38;15.70;78.80
76099;DHT22;64828;49.956;8.636;2023-06-10T00:45:54;15.70;78.60
76099;DHT22;64828;49.956;8.636;2023-06-10T00:46:11;15.70;78.80
76099;DHT22;64828;49.956;8.636;2023-06-10T00:46:27;15.70;78.90
76099;DHT22;64828;49.956;8.636;2023-06-10T00:46:43;15.70;78.70
76099;DHT22;64828;49.956;8.636;2023-06-10T00:46:59;15.60;78.60
76099;DHT22;64828;49.956;8.636;2023-06-10T00:47:15;15.60;78.80
76099;DHT22;64828;49.956;8.636;2023-06-10T00:47:32;15.60;79.00
76099;DHT22;64828;49.956;8.636;2023-06-10T00:47:47;15.70;79.00
76099;DHT22;64828;49.956;8.636;2023-06-10T00:48:03;15.70;78.90
76099;DHT22;64828;49.956;8.636;2023-06-10T00:48:20;15.60;78.90
76099;DHT22;64828;49.956;8.636;2023-06-10T00:48:36;15.60;79.00
76099;DHT22;64828;49.956;8.636;2023-06-10T00:48:52;15.60;79.00
76099;DHT22;64828;49.956;8.636;2023-06-10T00:49:08;15.60;79.00
76099;DHT22;64828;49.956;8.636;2023-06-10T00:49:24;15.60;79.00
76099;DHT22;64828;49.956;8.636;2023-06-10T00:49:40;15.60;79.00
76099;DHT22;64828;49.956;8.636;2023-06-10T00:49:56;15.60;79.10
76099;DHT22;64828;49.956;8.636;2023-06-10T00:50:12;15.60;79.10
76099;DHT22;64828;49.956;8.636;2023-06-10T00:50:28;15.60;79.10
76099;DHT22;64828;49.956;8.636;2023-06-10T00:50:44;15.60;79.20
76099;DHT22;64828;49.956;8.636;2023-06-10T00:51:02;15.60;79.30
76099;DHT22;64828;49.956;8.636;2023-06-10T00:51:18;15.50;79.20
76099;DHT22;64828;49.956;8.636;2023-06-10T00:51:34;15.60;79.20
76099;DHT22;64828;49.956;8.636;2023-06-10T00:51:52;15.60;79.30
76099;DHT22;64828;49.956;8.636;2023-06-10T00:52:08;15.50;79.20
76099;DHT22;64828;49.956;8.636;2023-06-10T00:52:27;15.60;79.20
76099;DHT22;64828;49.956;8.636;2023-06-10T00:52:45;15.60;79.30
76099;DHT22;64828;49.956;8.636;2023-06-10T00:53:04;15.60;79.30
76099;DHT22;64828;49.956;8.636;2023-06-10T00:53:21;15.60;79.30
76099;DHT22;64828;49.956;8.636;2023-06-10T00:53:40;15.60;79.20
76099;DHT22;64828;49.956;8.636;2023-06-10T00:53:57;15.50;79.20
76099;DHT22;64828;49.956;8.636;2023-06-10T00:54:13;15.50;79.10
76099;DHT22;64828;49.956;8.636;2023-06-10T00:54:28;15.60;79.20
76099;DHT22;64828;49.956;8.636;2023-06-10T00:54:44;15.60;79.40
76099;DHT22;64828;49.956;8.636;2023-06-10T00:55:00;15.60;79.40
76099;DHT22;64828;49.956;8.636;2023-06-10T00:55:17;15.60;79.30
76099;DHT22;64828;49.956;8.636;2023-06-10T00:55:33;15.60;79.30
76099;DHT22;64828;49.956;8.636;2023-06-10T00:55:49;15.50;79.40
76099;DHT22;64828;49.956;8.636;2023-06-10T00:56:05;15.60;79.30
76099;DHT22;64828;49.956;8.636;2023-06-10T00:56:22;15.60;79.30
76099;DHT22;64828;49.956;8.636;2023-06-10T00:56:37;15.60;79.10
76099;DHT22;64828;49.956;8.636;2023-06-10T00:56:53;15.60;79.10
76099;DHT22;64828;49.956;8.636;2023-06-10T00:57:09;15.60;79.00
76099;DHT22;64828;49.956;8.636;2023-06-10T00:57:25;15.60;78.90
76099;DHT22;64828;49.956;8.636;2023-06-10T00:57:42;15.60;78.90
76099;DHT22;64828;49.956;8.636;2023-06-10T00:57:59;15.60;78.90
76099;DHT22;64828;49.956;8.636;2023-06-10T00:58:16;15.60;78.80
76099;DHT22;64828;49.956;8.636;2023-06-10T00:58:32;15.60;78.80
76099;DHT22;64828;49.956;8.636;2023-06-10T00:58:48;15.60;78.80
76099;DHT22;64828;49.956;8.636;2023-06-10T00:59:03;15.60;78.80
76099;DHT22;64828;49.956;8.636;2023-06-10T00:59:19;15.60;78.90
76099;DHT22;64828;49.956;8.636;2023-06-10T00:59:35;15.60;78.80
76099;DHT22;64828;49.956;8.636;2023-06-10T00:59:51;15.60;78.80
76099;DHT22;64828;49.956;8.636;2023-06-10T01:00:07;15.60;78.80
76099;DHT22;64828;49.956;8.636;2023-06-10T01:00:24;15.60;78.90
76099;DHT22;64828;49.956;8.636;2023-06-10T01:00:39;15.60;78.80
76099;DHT22;64828;49.956;8.636;2023-06-10T01:00:55;15.60;78.70
76099;DHT22;64828;49.956;8.636;2023-06-10T01:01:10;15.60;78.80
76099;DHT22;64828;49.956;8.636;2023-06-10T01:01:28;15.60;78.70
76099;DHT22;64828;49.956;8.636;2023-06-10T01:01:45;15.60;78.40
76099;DHT22;64828;49.956;8.636;2023-06-10T01:02:03;15.60;78.40
76099;DHT22;64828;49.956;8.636;2023-06-10T01:02:19;15.60;78.40
76099;DHT22;64828;49.956;8.636;2023-06-10T01:02:35;15.60;78.50
76099;DHT22;64828;49.956;8.636;2023-06-10T01:02:51;15.60;78.40
76099;DHT22;64828;49.956;8.636;2023-06-10T01:03:10;15.60;78.40
76099;DHT22;64828;49.956;8.636;2023-06-10T01:03:27;15.60;78.50
76099;DHT22;64828;49.956;8.636;2023-06-10T01:03:43;15.60;78.40
76099;DHT22;64828;49.956;8.636;2023-06-10T01:04:00;15.60;78.40
76099;DHT22;64828;49.956;8.636;2023-06-10T01:04:16;15.60;78.40
76099;DHT22;64828;49.956;8.636;2023-06-10T01:04:32;15.60;78.40
76099;DHT22;64828;49.956;8.636;2023-06-10T01:04:48;15.60;78.60
76099;DHT22;64828;49.956;8.636;2023-06-10T01:05:04;15.60;78.70
76099;DHT22;64828;49.956;8.636;2023-06-10T01:05:21;15.50;78.70
76099;DHT22;64828;49.956;8.636;2023-06-10T01:05:39;15.50;78.60
76099;DHT22;64828;49.956;8.636;2023-06-10T01:06:32;15.50;78.60
76099;DHT22;64828;49.956;8.636;2023-06-10T01:07:21;15.50;78.30
76099;DHT22;64828;49.956;8.636;2023-06-10T01:08:35;15.60;78.00
76099;DHT22;64828;49.956;8.636;2023-06-10T01:09:19;15.50;78.00
76099;DHT22;64828;49.956;8.636;2023-06-10T01:09:59;15.60;77.90
76099;DHT22;64828;49.956;8.636;2023-06-10T01:10:29;15.50;77.60
76099;DHT22;64828;49.956;8.636;2023-06-10T01:11:05;15.60;77.50
76099;DHT22;64828;49.956;8.636;2023-06-10T01:11:29;15.60;77.30
76099;DHT22;64828;49.956;8.636;2023-06-10T01:12:01;15.60;77.20
76099;DHT22;64828;49.956;8.636;2023-06-10T01:12:39;15.60;77.30
76099;DHT22;64828;49.956;8.636;2023-06-10T01:13:07;15.70;77.70
76099;DHT22;64828;49.956;8.636;2023-06-10T01:13:27;15.60;77.50
76099;DHT22;64828;49.956;8.636;2023-06-10T01:13:45;15.60;77.60
76099;DHT22;64828;49.956;8.636;2023-06-10T01:14:07;15.60;77.70
76099;DHT22;64828;49.956;8.636;2023-06-10T01:14:25;15.60;77.70
76099;DHT22;64828;49.956;8.636;2023-06-10T01:14:42;15.60;77.70
76099;DHT22;64828;49.956;8.636;2023-06-10T01:15:01;15.60;77.70
76099;DHT22;64828;49.956;8.636;2023-06-10T01:15:18;15.60;77.80
76099;DHT22;64828;49.956;8.636;2023-06-10T01:15:35;15.60;77.80
76099;DHT22;64828;49.956;8.636;2023-06-10T01:15:52;15.60;77.80
76099;DHT22;64828;49.956;8.636;2023-06-10T01:16:09;15.60;77.90
76099;DHT22;64828;49.956;8.636;2023-06-10T01:16:25;15.60;78.00
76099;DHT22;64828;49.956;8.636;2023-06-10T01:16:41;15.60;78.50
76099;DHT22;64828;49.956;8.636;2023-06-10T01:16:57;15.60;78.60
76099;DHT22;64828;49.956;8.636;2023-06-10T01:17:13;15.50;78.40
76099;DHT22;64828;49.956;8.636;2023-06-10T01:17:31;15.60;78.40
76099;DHT22;64828;49.956;8.636;2023-06-10T01:17:58;15.60;78.30
76099;DHT22;64828;49.956;8.636;2023-06-10T01:18:14;15.50;78.50
76099;DHT22;64828;49.956;8.636;2023-06-10T01:18:33;15.50;78.80
76099;DHT22;64828;49.956;8.636;2023-06-10T01:18:48;15.50;78.90
76099;DHT22;64828;49.956;8.636;2023-06-10T01:19:04;15.50;78.90
76099;DHT22;64828;49.956;8.636;2023-06-10T01:19:19;15.50;78.70
76099;DHT22;64828;49.956;8.636;2023-06-10T01:19:35;15.50;78.60
76099;DHT22;64828;49.956;8.636;2023-06-10T01:19:54;15.50;78.80
76099;DHT22;64828;49.956;8.636;2023-06-10T01:20:11;15.50;78.80
76099;DHT22;64828;49.956;8.636;2023-06-10T01:20:28;15.50;78.80
76099;DHT22;64828;49.956;8.636;2023-06-10T01:20:46;15.50;78.90
76099;DHT22;64828;49.956;8.636;2023-06-10T01:21:03;15.50;79.10
76099;DHT22;64828;49.956;8.636;2023-06-10T01:21:22;15.50;79.20
76099;DHT22;64828;49.956;8.636;2023-06-10T01:21:42;15.50;79.10
76099;DHT22;64828;49.956;8.636;2023-06-10T01:22:00;15.50;79.10
76099;DHT22;64828;49.956;8.636;2023-06-10T01:22:15;15.40;79.10
76099;DHT22;64828;49.956;8.636;2023-06-10T01:22:31;15.50;79.00
76099;DHT22;64828;49.956;8.636;2023-06-10T01:22:47;15.50;78.90
76099;DHT22;64828;49.956;8.636;2023-06-10T01:23:03;15.40;78.80
76099;DHT22;64828;49.956;8.636;2023-06-10T01:23:19;15.40;78.80
76099;DHT22;64828;49.956;8.636;2023-06-10T01:23:34;15.50;78.80
76099;DHT22;64828;49.956;8.636;2023-06-10T01:23:52;15.40;78.90
76099;DHT22;64828;49.956;8.636;2023-06-10T01:24:10;15.40;79.10
76099;DHT22;64828;49.956;8.636;2023-06-10T01:24:28;15.50;79.20
76099;DHT22;64828;49.956;8.636;2023-06-10T01:24:44;15.50;79.20
76099;DHT22;64828;49.956;8.636;2023-06-10T01:25:00;15.50;79.00
76099;DHT22;64828;49.956;8.636;2023-06-10T01:25:18;15.50;79.00
76099;DHT22;64828;49.956;8.636;2023-06-10T01:25:38;15.50;79.10
76099;DHT22;64828;49.956;8.636;2023-06-10T01:26:09;15.50;78.90
76099;DHT22;64828;49.956;8.636;2023-06-10T01:26:30;15.40;78.70
76099;DHT22;64828;49.956;8.636;2023-06-10T01:26:49;15.50;78.90
76099;DHT22;64828;49.956;8.636;2023-06-10T01:27:12;15.40;79.30
76099;DHT22;64828;49.956;8.636;2023-06-10T01:27:33;15.40;79.20
76099;DHT22;64828;49.956;8.636;2023-06-10T01:28:07;15.50;79.30
76099;DHT22;64828;49.956;8.636;2023-06-10T01:28:54;15.40;79.20
76099;DHT22;64828;49.956;8.636;2023-06-10T01:29:19;15.40;78.90
76099;DHT22;64828;49.956;8.636;2023-06-10T01:29:46;15.40;79.00
76099;DHT22;64828;49.956;8.636;2023-06-10T01:30:15;15.40;78.90
76099;DHT22;64828;49.956;8.636;2023-06-10T01:30:47;15.30;79.10
76099;DHT22;64828;49.956;8.636;2023-06-10T01:32:08;15.30;79.20
76099;DHT22;64828;49.956;8.636;2023-06-10T01:32:40;15.30;79.60
76099;DHT22;64828;49.956;8.636;2023-06-10T01:33:05;15.20;79.90
76099;DHT22;64828;49.956;8.636;2023-06-10T01:33:29;15.20;79.70
76099;DHT22;64828;49.956;8.636;2023-06-10T01:33:52;15.20;79.70
76099;DHT22;64828;49.956;8.636;2023-06-10T01:34:12;15.20;79.60
76099;DHT22;64828;49.956;8.636;2023-06-10T01:34:31;15.20;79.70
76099;DHT22;64828;49.956;8.636;2023-06-10T01:34:48;15.20;79.80
76099;DHT22;64828;49.956;8.636;2023-06-10T01:35:07;15.20;79.60
76099;DHT22;64828;49.956;8.636;2023-06-10T01:35:25;15.10;79.70
76099;DHT22;64828;49.956;8.636;2023-06-10T01:35:41;15.10;79.90
76099;DHT22;64828;49.956;8.636;2023-06-10T01:35:59;15.20;80.00
76099;DHT22;64828;49.956;8.636;2023-06-10T01:36:18;15.10;80.00
76099;DHT22;64828;49.956;8.636;2023-06-10T01:36:37;15.10;80.30
76099;DHT22;64828;49.956;8.636;2023-06-10T01:36:57;15.10;80.20
76099;DHT22;64828;49.956;8.636;2023-06-10T01:37:15;15.10;80.30
76099;DHT22;64828;49.956;8.636;2023-06-10T01:37:34;15.10;80.10
76099;DHT22;64828;49.956;8.636;2023-06-10T01:37:53;15.10;80.00
76099;DHT22;64828;49.956;8.636;2023-06-10T01:38:14;15.10;80.30
76099;DHT22;64828;49.956;8.636;2023-06-10T01:38:33;15.00;80.50
76099;DHT22;64828;49.956;8.636;2023-06-10T01:38:55;15.00;80.70
76099;DHT22;64828;49.956;8.636;2023-06-10T01:39:12;15.00;80.80
76099;DHT22;64828;49.956;8.636;2023-06-10T01:39:32;15.00;80.70
76099;DHT22;64828;49.956;8.636;2023-06-10T01:39:48;15.00;80.60
76099;DHT22;64828;49.956;8.636;2023-06-10T01:40:05;15.00;80.70
76099;DHT22;64828;49.956;8.636;2023-06-10T01:40:23;15.00;80.80
76099;DHT22;64828;49.956;8.636;2023-06-10T01:40:42;15.00;80.80
76099;DHT22;64828;49.956;8.636;2023-06-10T01:40:58;15.00;80.80
76099;DHT22;64828;49.956;8.636;2023-06-10T01:41:16;15.00;80.80
76099;DHT22;64828;49.956;8.636;2023-06-10T01:41:33;15.00;80.90
76099;DHT22;64828;49.956;8.636;2023-06-10T01:41:52;15.00;81.00
76099;DHT22;64828;49.956;8.636;2023-06-10T01:42:10;15.00;81.10
76099;DHT22;64828;49.956;8.636;2023-06-10T01:42:28;15.00;81.10
76099;DHT22;64828;49.956;8.636;2023-06-10T01:42:44;15.00;81.10
76099;DHT22;64828;49.956;8.636;2023-06-10T01:43:00;14.90;81.10
76099;DHT22;64828;49.956;8.636;2023-06-10T01:43:16;14.90;81.10
76099;DHT22;64828;49.956;8.636;2023-06-10T01:43:34;14.90;81.10
76099;DHT22;64828;49.956;8.636;2023-06-10T01:43:54;15.00;81.40
76099;DHT22;64828;49.956;8.636;2023-06-10T01:44:10;14.90;81.40
76099;DHT22;64828;49.956;8.636;2023-06-10T01:44:26;14.90;81.30
76099;DHT22;64828;49.956;8.636;2023-06-10T01:44:42;14.90;81.20
76099;DHT22;64828;49.956;8.636;2023-06-10T01:44:58;14.90;81.30
76099;DHT22;64828;49.956;8.636;2023-06-10T01:45:13;14.90;81.20
76099;DHT22;64828;49.956;8.636;2023-06-10T01:45:29;14.90;81.10
76099;DHT22;64828;49.956;8.636;2023-06-10T01:45:45;14.90;81.00
76099;DHT22;64828;49.956;8.636;2023-06-10T01:46:00;14.90;80.90
76099;DHT22;64828;49.956;8.636;2023-06-10T01:46:16;14.90;80.80
76099;DHT22;64828;49.956;8.636;2023-06-10T01:46:35;14.90;80.80
76099;DHT22;64828;49.956;8.636;2023-06-10T01:46:50;14.90;80.80
76099;DHT22;64828;49.956;8.636;2023-06-10T01:47:06;14.90;80.80
76099;DHT22;64828;49.956;8.636;2023-06-10T01:47:21;14.90;80.90
76099;DHT22;64828;49.956;8.636;2023-06-10T01:47:37;14.90;80.90
76099;DHT22;64828;49.956;8.636;2023-06-10T01:47:53;14.90;81.00
76099;DHT22;64828;49.956;8.636;2023-06-10T01:48:08;14.90;81.10
76099;DHT22;64828;49.956;8.636;2023-06-10T01:48:24;14.80;81.20
76099;DHT22;64828;49.956;8.636;2023-06-10T01:48:41;14.90;81.30
76099;DHT22;64828;49.956;8.636;2023-06-10T01:48:57;14.90;81.40
76099;DHT22;64828;49.956;8.636;2023-06-10T01:49:13;14.80;81.50
76099;DHT22;64828;49.956;8.636;2023-06-10T01:49:29;14.80;81.60
76099;DHT22;64828;49.956;8.636;2023-06-10T01:49:44;14.80;81.70
76099;DHT22;64828;49.956;8.636;2023-06-10T01:50:00;14.80;81.80
76099;DHT22;64828;49.956;8.636;2023-06-10T01:50:16;14.80;81.90
76099;DHT22;64828;49.956;8.636;2023-06-10T01:50:31;14.80;81.90
76099;DHT22;64828;49.956;8.636;2023-06-10T01:50:47;14.80;82.00
76099;DHT22;64828;49.956;8.636;2023-06-10T01:51:03;14.80;81.90
76099;DHT22;64828;49.956;8.636;2023-06-10T01:51:19;14.80;82.00
76099;DHT22;64828;49.956;8.636;2023-06-10T01:51:35;14.80;82.00
76099;DHT22;64828;49.956;8.636;2023-06-10T01:51:51;14.70;82.10
76099;DHT22;64828;49.956;8.636;2023-06-10T01:52:07;14.80;82.10
76099;DHT22;64828;49.956;8.636;2023-06-10T01:52:22;14.80;82.10
76099;DHT22;64828;49.956;8.636;2023-06-10T01:52:38;14.80;82.10
76099;DHT22;64828;49.956;8.636;2023-06-10T01:52:54;14.70;82.10
76099;DHT22;64828;49.956;8.636;2023-06-10T01:53:09;14.80;82.20